WEATHER DATA

YESTERDAY
Time Temp. Dewp. Hum. Wind dir Wind speed Wind gust Bar.
00:07 4 2.5 90 230 1.9 3.1 1022.4
00:16 4 2.5 90 231 1.9 3.1 1022.3
00:27 3.9 2.4 90 230 1.9 3.1 1022.2
00:37 3.9 2.4 90 232 1.9 3.1 1022.1
00:47 3.9 2.4 90 234 1.7 2.8 1022
00:57 3.9 2.4 90 235 1.9 3.1 1022.1
01:07 3.9 2.4 90 233 1.9 3.1 1022
01:17 3.9 2.4 90 239 1.9 3.1 1022
01:27 3.8 2.3 90 234 1.7 3.6 1021.8
01:38 3.8 2.3 90 234 1.7 3.1 1021.8
01:48 3.7 2.2 90 234 1.7 3.1 1021.8
01:57 3.6 2.1 90 232 1.9 3.1 1021.6
02:08 3.6 2.1 90 229 1.7 3.1 1021.6
02:18 3.5 2 90 233 1.7 3.1 1021.6
02:28 3.4 1.9 90 233 1.9 3.1 1021.5
02:38 3.4 1.9 90 232 1.7 3.1 1021.5
02:49 3.3 1.8 90 236 1.7 3.3 1021.5
02:58 3.2 1.7 90 241 1.7 2.8 1021.3
03:08 3.2 1.7 90 240 1.7 2.8 1021.3
03:18 3.2 1.7 90 233 1.7 2.8 1021.2
03:29 3.1 1.6 90 234 1.7 3.1 1021.2
03:39 3 1.5 90 238 1.7 2.8 1021.2
03:48 2.9 1.4 90 230 1.7 3.1 1021.2
03:58 2.8 1.3 90 229 1.7 3.1 1021
04:08 2.7 1.4 91 237 1.7 3.1 1020.9
04:18 2.7 1.4 91 231 1.7 2.8 1020.9
04:28 2.6 1.3 91 233 1.7 3.1 1020.7
04:39 2.6 1.3 91 238 1.7 3.1 1020.9
04:48 2.5 1.2 91 245 1.7 3.3 1020.9
04:58 2.5 1.2 91 241 1.7 2.8 1020.7
05:09 2.5 1.2 91 241 1.7 2.8 1020.5
05:19 2.5 1.2 91 239 1.7 3.1 1020.7
05:29 2.5 1.2 91 246 1.7 2.8 1020.7
05:39 2.4 1.1 91 239 1.7 3.1 1020.6
05:49 2.4 1.1 91 249 1.7 2.8 1020.7
05:59 2.3 1 91 247 1.7 3.1 1020.7
06:09 2.3 1 91 237 1.7 2.8 1020.8
06:20 2.1 0.8 91 237 1.7 2.8 1020.7
06:29 2.1 0.8 91 243 1.7 2.8 1020.7
06:39 2 0.7 91 236 1.7 3.3 1020.8
06:49 1.9 0.6 91 240 1.7 2.8 1020.8
07:00 1.9 0.6 91 237 1.4 2.5 1020.9
07:10 1.8 0.5 91 242 1.7 3.3 1020.9
07:19 1.8 0.5 91 233 1.7 2.5 1020.8
07:30 1.8 0.6 92 270 1.7 3.6 1020.6
07:40 1.7 0.4 91 230 1.7 2.5 1020.6
07:50 1.7 0.4 91 234 1.7 2.5 1020.5
08:00 1.6 0.4 92 239 1.7 3.1 1020.6
08:11 1.6 0.4 92 236 1.7 3.1 1020.5
08:20 1.6 0.4 92 256 1.4 3.6 1020.5
08:30 1.7 0.5 92 262 1.7 3.3 1020.6
08:41 1.8 0.6 92 233 1.4 2.8 1020.6
08:51 2 0.8 92 251 1.1 2.8 1020.7
09:01 2.1 0.9 92 355 0.6 1.7 1020.7
09:10 2.4 1.2 92 55 0.6 1.9 1020.6
09:21 2.6 1.4 92 39 0.3 1.7 1020.7
09:31 3 1.8 92 11 0.6 1.7 1020.6
09:41 3.3 2 91 212 0.6 2.5 1020.7
09:51 3.6 2.3 91 222 3.3 5.8 1020.7
10:01 3.9 2.4 90 222 3.6 5.6 1020.8
10:11 4.2 2.6 89 224 4.2 7.2 1020.6
10:21 4.5 2.8 89 238 2.5 5 1020.6
10:32 4.8 3 88 234 2.5 5.8 1020.6
10:42 5.1 3.1 87 234 2.8 8.6 1020.8
10:52 5.3 3.3 87 225 3.1 6.7 1020.7
11:02 5.6 3.4 86 228 1.9 6.7 1020.6
11:13 5.8 3.5 85 219 1.9 4.2 1020.5
11:23 6.1 3.8 85 225 2.8 6.1 1020.7
11:32 6.3 3.8 84 221 2.5 4.4 1020.5
11:43 6.6 4.1 84 225 3.1 5 1020.6
11:53 6.8 4.1 83 226 2.5 4.2 1020.4
12:03 7.1 4.4 83 224 2.8 4.4 1020.5
12:13 7.4 4.5 82 225 2.5 4.4 1020.4
12:23 7.6 4.7 82 233 2.8 4.2 1020.2
12:33 7.9 4.8 81 228 2.8 4.7 1020.3
12:43 8.3 5.1 80 227 3.1 4.7 1020.3
12:53 8.6 5.3 80 226 2.8 4.2 1020.1
13:04 8.8 5.2 78 211 3.1 5.6 1020
13:14 9.1 5.5 78 214 3.3 6.1 1019.7
13:23 9.2 5.4 77 206 2.8 5.6 1019.7
13:34 9.4 5.6 77 210 3.3 7.5 1019.7
13:44 9.6 5.8 77 207 3.3 6.4 1019.6
13:54 9.7 5.7 76 212 3.6 6.4 1019.6
14:04 10 6 76 210 3.6 6.7 1019.4
14:14 10.2 6 75 211 3.6 6.4 1019.3
14:33 10.8 6.2 73 217 4.4 13.1 1019.2
14:43 10.8 6.2 73 208 3.3 7.8 1019.1
14:53 11 6.6 74 211 3.6 6.1 1019.1
15:02 11.2 6.5 73 212 4.2 7.5 1019
15:13 11.5 6.6 72 213 4.2 7.5 1018.8
15:23 11.7 6.6 71 219 4.4 8.1 1018.7
15:33 11.8 6.7 71 211 4.2 7.8 1018.6
15:43 11.8 6.7 71 216 3.6 8.1 1018.4
15:53 11.8 6.5 70 228 3.1 5.6 1018.2
16:03 11.8 6.5 70 191 3.1 4.7 1018.1
16:14 12 6.9 71 229 3.6 11.9 1018.2
16:24 12.1 6.8 70 212 3.3 5 1018.1
16:34 12.2 6.7 69 233 3.6 7.8 1018
16:44 12.3 6.8 69 226 4.2 10.3 1017.9
16:54 12.4 6.9 69 226 3.6 6.4 1017.9
17:05 12.5 6.5 67 226 3.6 6.7 1017.9
17:15 12.5 7 69 222 4.4 8.1 1017.7
17:24 12.5 7.2 70 227 3.3 7.5 1017.7
17:35 13.1 7.8 70 232 4.4 7.8 1017.6
17:45 13.9 8.1 68 226 4.4 8.1 1017.6
17:55 13.8 7.8 67 216 4.2 8.1 1017.5
18:05 12.9 7.1 68 216 3.1 5.8 1017.4
18:15 12.1 6.8 70 228 3.6 5.8 1017.5
18:25 11 6.2 72 225 0.3 1.4 1017.6
18:35 10.1 5.9 75 90 0.3 0.6 1017.5
18:45 9.2 5.4 77 218 0.6 1.4 1017.4
18:56 8.4 5 79 229 1.4 1.9 1017.4
19:05 7.7 4.5 80 220 1.4 2.8 1017.5
19:15 7.1 4.1 81 226 1.9 3.1 1017.6
19:26 6.5 3.7 82 226 3.1 4.2 1017.5
19:36 6.1 3.6 84 227 3.1 4.4 1017.5
19:46 5.8 3.5 85 227 3.3 4.4 1017.6
19:55 5.6 3.4 86 227 3.3 4.2 1017.4
20:06 5.2 3.1 86 229 3.1 4.4 1017.5
20:16 4.8 2.7 86 227 3.1 4.2 1017.4
20:26 4.4 2.3 86 228 3.1 4.2 1017.5
20:36 4.1 2.1 87 233 3.1 3.6 1017.4
20:46 3.8 1.8 87 228 3.1 4.4 1017.3
20:56 3.5 1.5 87 228 3.1 4.4 1017.2
21:06 3.2 1.4 88 232 3.1 4.2 1017.1
21:21 2.9 1.1 88 230 3.1 4.2 1017.2
21:27 2.8 1.2 89 231 3.1 3.6 1017
21:37 2.6 1 89 230 3.1 4.2 1017.1
21:47 2.5 0.9 89 231 3.1 4.2 1016.8
21:57 2.3 0.7 89 228 3.1 4.2 1017
22:07 2.1 0.5 89 231 3.1 4.2 1016.9
22:17 1.9 0.3 89 229 3.1 4.2 1016.9
22:28 1.7 0.2 90 230 3.1 4.2 1016.8
22:37 1.5 0 90 229 3.1 4.2 1016.9
22:47 1.4 0 90 230 3.1 3.6 1016.9
22:57 1.2 -0.2 90 228 3.1 3.6 1016.8
23:08 1.1 -0.3 90 228 3.1 4.2 1016.9
23:18 0.9 -0.4 91 230 2.8 4.2 1016.9
23:27 0.8 -0.4 91 231 3.1 3.6 1017
23:38 0.6 -0.6 91 230 2.8 3.6 1016.9
23:48 0.5 -0.7 91 229 2.8 3.6 1017
23:58 0.3 -0.9 91 232 3.1 3.6 1017

DAY STATISTIC

2021-10-24
TEMPERATURE
AVERAGE
5.4
HIGH
13.9
17:45
LOW
0.3
23:58
PRESSURE
AVERAGE
1019.5
HIGH
1022.4
00:07
LOW
1016.8
21:47
DEWPOINT
AVERAGE
2.9
HIGH
8.1
17:45
LOW
-0.9
23:58
HUMIDITY
AVERAGE
85
HIGH
92
07:30
LOW
67
17:05
WIND SPEED
AVERAGE
2.5
HIGH
4.4
14:33
WIND GUST
AVERAGE
4.4
HIGH
13.1
14:33
WIND DIRECTION
PREVAILING
SW
92.3%
N
1.4
NE
1.4
E
0.7
SE
0.0
S
0.7
SW
92.3
W
3.5
NW
0.0
TEMPERATURE (°C)
LOW
0.3
HIGH
13.9
AVERAGE
5.4
PRESSURE (hpa)
LOW
1016.8
HIGH
1022.4
AVERAGE
1019.5
DEVICE